sensor_id;sensor_type;location;lat;lon;timestamp;P1;durP1;ratioP1;P2;durP2;ratioP2
44428;SDS011;30134;47.866;-4.222;2023-02-11T00:00:59;3.97;;;2.80;;
44428;SDS011;30134;47.866;-4.222;2023-02-11T00:03:40;3.70;;;2.80;;
44428;SDS011;30134;47.866;-4.222;2023-02-11T00:06:12;3.83;;;3.13;;
44428;SDS011;30134;47.866;-4.222;2023-02-11T00:08:46;4.22;;;2.97;;
44428;SDS011;30134;47.866;-4.222;2023-02-11T00:11:16;2.97;;;2.50;;
44428;SDS011;30134;47.866;-4.222;2023-02-11T00:13:46;5.47;;;2.70;;
44428;SDS011;30134;47.866;-4.222;2023-02-11T00:16:18;3.10;;;2.72;;
44428;SDS011;30134;47.866;-4.222;2023-02-11T00:18:47;3.22;;;2.75;;
44428;SDS011;30134;47.866;-4.222;2023-02-11T00:21:22;3.88;;;2.67;;
44428;SDS011;30134;47.866;-4.222;2023-02-11T00:23:52;3.03;;;2.50;;
44428;SDS011;30134;47.866;-4.222;2023-02-11T00:26:25;3.37;;;2.70;;
44428;SDS011;30134;47.866;-4.222;2023-02-11T00:28:54;3.00;;;2.70;;
44428;SDS011;30134;47.866;-4.222;2023-02-11T00:31:22;3.95;;;3.15;;
44428;SDS011;30134;47.866;-4.222;2023-02-11T00:33:50;3.53;;;2.58;;
44428;SDS011;30134;47.866;-4.222;2023-02-11T00:36:19;3.78;;;2.42;;
44428;SDS011;30134;47.866;-4.222;2023-02-11T00:38:48;3.25;;;2.50;;
44428;SDS011;30134;47.866;-4.222;2023-02-11T00:41:17;3.15;;;2.53;;
44428;SDS011;30134;47.866;-4.222;2023-02-11T00:43:45;3.53;;;2.75;;
44428;SDS011;30134;47.866;-4.222;2023-02-11T00:46:14;3.92;;;3.20;;
44428;SDS011;30134;47.866;-4.222;2023-02-11T00:48:41;4.05;;;2.78;;
44428;SDS011;30134;47.866;-4.222;2023-02-11T00:51:09;4.07;;;2.75;;
44428;SDS011;30134;47.866;-4.222;2023-02-11T00:53:37;4.13;;;2.85;;
44428;SDS011;30134;47.866;-4.222;2023-02-11T00:56:04;4.13;;;2.85;;
44428;SDS011;30134;47.866;-4.222;2023-02-11T00:58:33;3.53;;;2.90;;
44428;SDS011;30134;47.866;-4.222;2023-02-11T01:01:00;3.78;;;2.90;;
44428;SDS011;30134;47.866;-4.222;2023-02-11T01:03:27;3.85;;;3.10;;
44428;SDS011;30134;47.866;-4.222;2023-02-11T01:05:53;3.70;;;2.80;;
44428;SDS011;30134;47.866;-4.222;2023-02-11T01:08:20;4.13;;;2.90;;
44428;SDS011;30134;47.866;-4.222;2023-02-11T01:10:53;2.78;;;2.47;;
44428;SDS011;30134;47.866;-4.222;2023-02-11T01:13:24;2.75;;;2.40;;
44428;SDS011;30134;47.866;-4.222;2023-02-11T01:15:51;3.90;;;2.90;;
44428;SDS011;30134;47.866;-4.222;2023-02-11T01:18:18;4.05;;;3.08;;
44428;SDS011;30134;47.866;-4.222;2023-02-11T01:20:44;3.22;;;2.63;;
44428;SDS011;30134;47.866;-4.222;2023-02-11T01:23:10;4.15;;;3.03;;
44428;SDS011;30134;47.866;-4.222;2023-02-11T01:25:37;3.38;;;2.83;;
44428;SDS011;30134;47.866;-4.222;2023-02-11T01:28:03;3.85;;;2.92;;
44428;SDS011;30134;47.866;-4.222;2023-02-11T01:30:29;3.70;;;2.95;;
44428;SDS011;30134;47.866;-4.222;2023-02-11T01:32:55;3.83;;;3.33;;
44428;SDS011;30134;47.866;-4.222;2023-02-11T01:35:21;4.32;;;3.25;;
44428;SDS011;30134;47.866;-4.222;2023-02-11T01:37:48;4.25;;;2.97;;
44428;SDS011;30134;47.866;-4.222;2023-02-11T01:40:15;3.55;;;2.92;;
44428;SDS011;30134;47.866;-4.222;2023-02-11T01:42:42;4.45;;;3.25;;
44428;SDS011;30134;47.866;-4.222;2023-02-11T01:48:23;3.80;;;3.20;;
44428;SDS011;30134;47.866;-4.222;2023-02-11T01:51:07;4.25;;;2.97;;
44428;SDS011;30134;47.866;-4.222;2023-02-11T01:53:43;3.58;;;3.13;;
44428;SDS011;30134;47.866;-4.222;2023-02-11T01:56:28;4.53;;;2.83;;
44428;SDS011;30134;47.866;-4.222;2023-02-11T02:03:16;3.40;;;3.10;;
44428;SDS011;30134;47.866;-4.222;2023-02-11T02:08:20;3.63;;;2.95;;
44428;SDS011;30134;47.866;-4.222;2023-02-11T02:11:11;3.80;;;3.05;;
44428;SDS011;30134;47.866;-4.222;2023-02-11T02:13:37;3.95;;;3.13;;
44428;SDS011;30134;47.866;-4.222;2023-02-11T02:16:04;4.13;;;3.38;;
44428;SDS011;30134;47.866;-4.222;2023-02-11T02:31:32;3.58;;;3.03;;
44428;SDS011;30134;47.866;-4.222;2023-02-11T02:34:49;4.05;;;2.90;;
44428;SDS011;30134;47.866;-4.222;2023-02-11T02:40:39;4.15;;;3.28;;
44428;SDS011;30134;47.866;-4.222;2023-02-11T02:43:21;3.45;;;2.95;;
44428;SDS011;30134;47.866;-4.222;2023-02-11T02:45:50;3.20;;;2.90;;
44428;SDS011;30134;47.866;-4.222;2023-02-11T02:51:11;3.78;;;3.10;;
44428;SDS011;30134;47.866;-4.222;2023-02-11T03:09:06;3.50;;;3.00;;
44428;SDS011;30134;47.866;-4.222;2023-02-11T03:11:40;3.33;;;3.00;;
44428;SDS011;30134;47.866;-4.222;2023-02-11T03:14:07;4.20;;;3.35;;
44428;SDS011;30134;47.866;-4.222;2023-02-11T03:16:37;4.32;;;3.30;;
44428;SDS011;30134;47.866;-4.222;2023-02-11T03:19:10;4.22;;;3.05;;
44428;SDS011;30134;47.866;-4.222;2023-02-11T03:21:39;5.05;;;3.67;;
44428;SDS011;30134;47.866;-4.222;2023-02-11T03:24:13;3.95;;;3.35;;
44428;SDS011;30134;47.866;-4.222;2023-02-11T03:26:54;3.78;;;3.22;;
44428;SDS011;30134;47.866;-4.222;2023-02-11T03:29:30;3.88;;;3.25;;
44428;SDS011;30134;47.866;-4.222;2023-02-11T03:34:49;3.47;;;3.10;;
44428;SDS011;30134;47.866;-4.222;2023-02-11T03:37:22;3.78;;;3.30;;
44428;SDS011;30134;47.866;-4.222;2023-02-11T03:40:01;3.85;;;3.45;;
44428;SDS011;30134;47.866;-4.222;2023-02-11T03:42:45;3.65;;;2.83;;
44428;SDS011;30134;47.866;-4.222;2023-02-11T03:45:16;4.35;;;3.53;;
44428;SDS011;30134;47.866;-4.222;2023-02-11T03:47:45;3.50;;;3.03;;
44428;SDS011;30134;47.866;-4.222;2023-02-11T03:50:24;4.15;;;3.10;;
44428;SDS011;30134;47.866;-4.222;2023-02-11T03:52:54;4.18;;;3.22;;
44428;SDS011;30134;47.866;-4.222;2023-02-11T03:55:21;4.38;;;3.40;;
44428;SDS011;30134;47.866;-4.222;2023-02-11T03:57:50;4.13;;;3.22;;
44428;SDS011;30134;47.866;-4.222;2023-02-11T04:00:16;4.47;;;3.33;;
44428;SDS011;30134;47.866;-4.222;2023-02-11T04:02:43;4.57;;;3.70;;
44428;SDS011;30134;47.866;-4.222;2023-02-11T04:05:11;3.42;;;3.10;;
44428;SDS011;30134;47.866;-4.222;2023-02-11T04:07:39;3.65;;;3.05;;
44428;SDS011;30134;47.866;-4.222;2023-02-11T04:10:05;4.35;;;3.15;;
44428;SDS011;30134;47.866;-4.222;2023-02-11T04:12:32;4.32;;;3.20;;
44428;SDS011;30134;47.866;-4.222;2023-02-11T04:14:58;3.60;;;2.80;;
44428;SDS011;30134;47.866;-4.222;2023-02-11T04:17:25;4.07;;;3.20;;
44428;SDS011;30134;47.866;-4.222;2023-02-11T04:19:51;3.88;;;3.35;;
44428;SDS011;30134;47.866;-4.222;2023-02-11T04:22:17;3.75;;;2.97;;
44428;SDS011;30134;47.866;-4.222;2023-02-11T04:24:44;4.40;;;3.53;;
44428;SDS011;30134;47.866;-4.222;2023-02-11T04:27:10;3.65;;;2.90;;
44428;SDS011;30134;47.866;-4.222;2023-02-11T04:29:36;4.53;;;3.42;;
44428;SDS011;30134;47.866;-4.222;2023-02-11T04:32:03;3.47;;;3.03;;
44428;SDS011;30134;47.866;-4.222;2023-02-11T04:34:29;4.65;;;3.47;;
44428;SDS011;30134;47.866;-4.222;2023-02-11T04:36:55;3.88;;;3.13;;
44428;SDS011;30134;47.866;-4.222;2023-02-11T04:39:22;3.58;;;3.05;;
44428;SDS011;30134;47.866;-4.222;2023-02-11T04:41:48;4.07;;;3.05;;
44428;SDS011;30134;47.866;-4.222;2023-02-11T04:44:15;4.45;;;3.20;;
44428;SDS011;30134;47.866;-4.222;2023-02-11T04:46:48;3.83;;;3.42;;
44428;SDS011;30134;47.866;-4.222;2023-02-11T04:49:14;4.78;;;3.42;;
44428;SDS011;30134;47.866;-4.222;2023-02-11T04:51:41;3.70;;;3.15;;
44428;SDS011;30134;47.866;-4.222;2023-02-11T04:54:11;3.75;;;3.13;;
44428;SDS011;30134;47.866;-4.222;2023-02-11T04:56:38;3.55;;;3.25;;
44428;SDS011;30134;47.866;-4.222;2023-02-11T04:59:04;4.05;;;3.28;;
44428;SDS011;30134;47.866;-4.222;2023-02-11T05:01:31;4.45;;;3.20;;
44428;SDS011;30134;47.866;-4.222;2023-02-11T05:03:58;4.05;;;3.15;;
44428;SDS011;30134;47.866;-4.222;2023-02-11T05:06:24;3.70;;;3.15;;
44428;SDS011;30134;47.866;-4.222;2023-02-11T05:08:51;4.25;;;3.42;;
44428;SDS011;30134;47.866;-4.222;2023-02-11T05:11:19;3.05;;;2.75;;
44428;SDS011;30134;47.866;-4.222;2023-02-11T05:13:47;3.78;;;3.17;;
44428;SDS011;30134;47.866;-4.222;2023-02-11T05:16:13;4.25;;;3.10;;
44428;SDS011;30134;47.866;-4.222;2023-02-11T05:18:41;3.97;;;3.00;;
44428;SDS011;30134;47.866;-4.222;2023-02-11T05:21:09;4.65;;;3.40;;
44428;SDS011;30134;47.866;-4.222;2023-02-11T05:23:37;4.70;;;3.20;;
44428;SDS011;30134;47.866;-4.222;2023-02-11T05:26:04;3.78;;;3.20;;
44428;SDS011;30134;47.866;-4.222;2023-02-11T05:28:31;3.85;;;2.95;;
44428;SDS011;30134;47.866;-4.222;2023-02-11T05:30:57;4.38;;;3.00;;
44428;SDS011;30134;47.866;-4.222;2023-02-11T05:33:24;4.32;;;3.47;;
44428;SDS011;30134;47.866;-4.222;2023-02-11T05:35:50;4.70;;;3.50;;
44428;SDS011;30134;47.866;-4.222;2023-02-11T05:38:22;3.08;;;2.78;;
44428;SDS011;30134;47.866;-4.222;2023-02-11T05:40:48;3.78;;;3.28;;
44428;SDS011;30134;47.866;-4.222;2023-02-11T05:43:14;3.58;;;3.03;;
44428;SDS011;30134;47.866;-4.222;2023-02-11T05:45:41;3.70;;;3.00;;
44428;SDS011;30134;47.866;-4.222;2023-02-11T05:48:07;4.40;;;3.40;;
44428;SDS011;30134;47.866;-4.222;2023-02-11T05:50:33;4.03;;;3.10;;
44428;SDS011;30134;47.866;-4.222;2023-02-11T05:52:59;3.75;;;2.97;;
44428;SDS011;30134;47.866;-4.222;2023-02-11T05:55:26;3.88;;;3.08;;
44428;SDS011;30134;47.866;-4.222;2023-02-11T05:57:52;3.08;;;2.78;;
44428;SDS011;30134;47.866;-4.222;2023-02-11T06:00:19;3.75;;;3.10;;
44428;SDS011;30134;47.866;-4.222;2023-02-11T06:02:45;3.40;;;3.08;;
44428;SDS011;30134;47.866;-4.222;2023-02-11T06:05:12;3.35;;;2.78;;
44428;SDS011;30134;47.866;-4.222;2023-02-11T06:07:38;3.75;;;2.95;;
44428;SDS011;30134;47.866;-4.222;2023-02-11T06:12:31;3.08;;;2.78;;
44428;SDS011;30134;47.866;-4.222;2023-02-11T06:14:57;3.40;;;2.85;;
44428;SDS011;30134;47.866;-4.222;2023-02-11T06:17:23;4.00;;;3.60;;
44428;SDS011;30134;47.866;-4.222;2023-02-11T06:19:50;3.38;;;3.08;;
44428;SDS011;30134;47.866;-4.222;2023-02-11T06:22:16;3.53;;;2.72;;
44428;SDS011;30134;47.866;-4.222;2023-02-11T06:24:42;3.13;;;2.78;;
44428;SDS011;30134;47.866;-4.222;2023-02-11T06:27:09;3.22;;;2.88;;
44428;SDS011;30134;47.866;-4.222;2023-02-11T06:29:35;3.15;;;2.83;;
44428;SDS011;30134;47.866;-4.222;2023-02-11T06:32:01;3.58;;;2.70;;
44428;SDS011;30134;47.866;-4.222;2023-02-11T06:34:28;2.88;;;2.58;;
44428;SDS011;30134;47.866;-4.222;2023-02-11T06:36:54;3.55;;;2.80;;
44428;SDS011;30134;47.866;-4.222;2023-02-11T06:39:20;3.13;;;2.65;;
44428;SDS011;30134;47.866;-4.222;2023-02-11T06:41:47;4.20;;;2.97;;
44428;SDS011;30134;47.866;-4.222;2023-02-11T06:44:13;3.08;;;2.75;;
44428;SDS011;30134;47.866;-4.222;2023-02-11T06:46:39;3.75;;;2.83;;
44428;SDS011;30134;47.866;-4.222;2023-02-11T06:49:06;3.90;;;2.95;;
44428;SDS011;30134;47.866;-4.222;2023-02-11T06:51:32;2.88;;;2.53;;
44428;SDS011;30134;47.866;-4.222;2023-02-11T06:53:58;3.22;;;2.90;;
44428;SDS011;30134;47.866;-4.222;2023-02-11T06:56:25;3.42;;;2.85;;
44428;SDS011;30134;47.866;-4.222;2023-02-11T06:58:54;3.65;;;2.95;;
44428;SDS011;30134;47.866;-4.222;2023-02-11T07:01:21;2.65;;;2.40;;
44428;SDS011;30134;47.866;-4.222;2023-02-11T07:03:48;3.33;;;2.97;;
44428;SDS011;30134;47.866;-4.222;2023-02-11T07:06:17;4.05;;;3.10;;
44428;SDS011;30134;47.866;-4.222;2023-02-11T07:08:45;4.35;;;2.92;;
44428;SDS011;30134;47.866;-4.222;2023-02-11T07:11:16;3.85;;;2.72;;
44428;SDS011;30134;47.866;-4.222;2023-02-11T07:13:45;2.92;;;2.60;;
44428;SDS011;30134;47.866;-4.222;2023-02-11T07:16:13;2.95;;;2.42;;
44428;SDS011;30134;47.866;-4.222;2023-02-11T07:18:40;4.10;;;3.00;;
44428;SDS011;30134;47.866;-4.222;2023-02-11T07:21:08;3.17;;;2.47;;
44428;SDS011;30134;47.866;-4.222;2023-02-11T07:23:36;3.85;;;2.85;;
44428;SDS011;30134;47.866;-4.222;2023-02-11T07:26:04;2.97;;;2.63;;
44428;SDS011;30134;47.866;-4.222;2023-02-11T07:28:33;3.38;;;2.75;;
44428;SDS011;30134;47.866;-4.222;2023-02-11T07:33:37;3.90;;;3.00;;
44428;SDS011;30134;47.866;-4.222;2023-02-11T07:36:04;3.17;;;2.63;;
44428;SDS011;30134;47.866;-4.222;2023-02-11T07:38:38;2.88;;;2.58;;
44428;SDS011;30134;47.866;-4.222;2023-02-11T07:41:05;2.88;;;2.60;;
44428;SDS011;30134;47.866;-4.222;2023-02-11T07:43:34;3.13;;;2.38;;
44428;SDS011;30134;47.866;-4.222;2023-02-11T07:46:02;2.80;;;2.38;;
44428;SDS011;30134;47.866;-4.222;2023-02-11T07:48:30;3.53;;;2.83;;
44428;SDS011;30134;47.866;-4.222;2023-02-11T07:53:34;3.28;;;2.72;;
44428;SDS011;30134;47.866;-4.222;2023-02-11T07:56:01;2.60;;;2.40;;
44428;SDS011;30134;47.866;-4.222;2023-02-11T07:58:29;2.42;;;2.22;;
44428;SDS011;30134;47.866;-4.222;2023-02-11T08:00:59;2.53;;;2.33;;
44428;SDS011;30134;47.866;-4.222;2023-02-11T08:03:27;2.57;;;2.37;;
44428;SDS011;30134;47.866;-4.222;2023-02-11T08:37:39;3.35;;;2.75;;
44428;SDS011;30134;47.866;-4.222;2023-02-11T08:40:05;2.88;;;2.35;;
44428;SDS011;30134;47.866;-4.222;2023-02-11T08:42:32;4.10;;;2.70;;
44428;SDS011;30134;47.866;-4.222;2023-02-11T08:44:58;3.50;;;2.90;;
44428;SDS011;30134;47.866;-4.222;2023-02-11T08:54:41;3.72;;;2.90;;
44428;SDS011;30134;47.866;-4.222;2023-02-11T08:59:34;2.78;;;2.40;;
44428;SDS011;30134;47.866;-4.222;2023-02-11T09:02:00;3.63;;;2.53;;
44428;SDS011;30134;47.866;-4.222;2023-02-11T09:04:26;3.53;;;2.78;;
44428;SDS011;30134;47.866;-4.222;2023-02-11T09:06:52;3.25;;;2.63;;
44428;SDS011;30134;47.866;-4.222;2023-02-11T16:39:49;2.72;;;1.83;;
44428;SDS011;30134;47.866;-4.222;2023-02-11T16:42:18;3.72;;;2.00;;
44428;SDS011;30134;47.866;-4.222;2023-02-11T16:44:44;4.20;;;2.10;;
44428;SDS011;30134;47.866;-4.222;2023-02-11T16:47:43;3.55;;;2.10;;
44428;SDS011;30134;47.866;-4.222;2023-02-11T16:50:07;4.93;;;2.10;;
44428;SDS011;30134;47.866;-4.222;2023-02-11T16:52:35;2.75;;;1.85;;
44428;SDS011;30134;47.866;-4.222;2023-02-11T16:55:02;2.35;;;1.83;;
44428;SDS011;30134;47.866;-4.222;2023-02-11T16:57:30;3.50;;;1.83;;
44428;SDS011;30134;47.866;-4.222;2023-02-11T16:59:57;2.80;;;1.70;;
44428;SDS011;30134;47.866;-4.222;2023-02-11T17:02:28;2.38;;;1.90;;
44428;SDS011;30134;47.866;-4.222;2023-02-11T17:04:58;5.00;;;2.00;;
44428;SDS011;30134;47.866;-4.222;2023-02-11T17:07:28;3.42;;;2.08;;
44428;SDS011;30134;47.866;-4.222;2023-02-11T17:09:54;3.97;;;1.80;;
44428;SDS011;30134;47.866;-4.222;2023-02-11T17:12:21;5.65;;;2.10;;
44428;SDS011;30134;47.866;-4.222;2023-02-11T17:14:50;2.85;;;1.92;;
44428;SDS011;30134;47.866;-4.222;2023-02-11T17:17:17;4.18;;;2.13;;
44428;SDS011;30134;47.866;-4.222;2023-02-11T17:19:46;3.00;;;1.80;;
44428;SDS011;30134;47.866;-4.222;2023-02-11T17:22:12;3.10;;;1.98;;
44428;SDS011;30134;47.866;-4.222;2023-02-11T17:24:39;3.53;;;1.67;;
44428;SDS011;30134;47.866;-4.222;2023-02-11T17:27:05;2.92;;;1.80;;
44428;SDS011;30134;47.866;-4.222;2023-02-11T17:29:31;2.80;;;1.80;;
44428;SDS011;30134;47.866;-4.222;2023-02-11T17:31:57;2.53;;;1.80;;
44428;SDS011;30134;47.866;-4.222;2023-02-11T17:34:23;3.05;;;1.88;;
44428;SDS011;30134;47.866;-4.222;2023-02-11T17:36:49;3.05;;;1.60;;
44428;SDS011;30134;47.866;-4.222;2023-02-11T17:39:16;2.92;;;1.92;;
44428;SDS011;30134;47.866;-4.222;2023-02-11T17:41:43;2.40;;;1.45;;
44428;SDS011;30134;47.866;-4.222;2023-02-11T17:44:09;2.47;;;1.88;;
44428;SDS011;30134;47.866;-4.222;2023-02-11T17:46:36;2.45;;;1.70;;
44428;SDS011;30134;47.866;-4.222;2023-02-11T17:49:02;4.10;;;1.88;;
44428;SDS011;30134;47.866;-4.222;2023-02-11T17:51:33;3.95;;;1.80;;
44428;SDS011;30134;47.866;-4.222;2023-02-11T17:54:03;4.90;;;1.63;;
44428;SDS011;30134;47.866;-4.222;2023-02-11T17:56:36;4.32;;;1.70;;
44428;SDS011;30134;47.866;-4.222;2023-02-11T17:59:03;2.58;;;1.77;;
44428;SDS011;30134;47.866;-4.222;2023-02-11T18:01:31;2.75;;;1.70;;
44428;SDS011;30134;47.866;-4.222;2023-02-11T18:03:58;2.15;;;1.88;;
44428;SDS011;30134;47.866;-4.222;2023-02-11T18:06:25;2.05;;;1.60;;
44428;SDS011;30134;47.866;-4.222;2023-02-11T18:08:53;3.92;;;2.15;;
44428;SDS011;30134;47.866;-4.222;2023-02-11T18:11:25;2.67;;;1.70;;
44428;SDS011;30134;47.866;-4.222;2023-02-11T18:13:54;1.60;;;1.50;;
44428;SDS011;30134;47.866;-4.222;2023-02-11T18:16:24;2.03;;;1.70;;
44428;SDS011;30134;47.866;-4.222;2023-02-11T18:18:53;2.63;;;1.50;;
44428;SDS011;30134;47.866;-4.222;2023-02-11T18:21:20;3.40;;;1.30;;
44428;SDS011;30134;47.866;-4.222;2023-02-11T18:23:48;2.78;;;1.70;;
44428;SDS011;30134;47.866;-4.222;2023-02-11T18:26:15;2.50;;;1.70;;
44428;SDS011;30134;47.866;-4.222;2023-02-11T18:28:43;2.40;;;1.60;;
44428;SDS011;30134;47.866;-4.222;2023-02-11T18:31:09;1.85;;;1.67;;
44428;SDS011;30134;47.866;-4.222;2023-02-11T18:33:36;3.20;;;2.13;;
44428;SDS011;30134;47.866;-4.222;2023-02-11T18:36:04;1.80;;;1.50;;
44428;SDS011;30134;47.866;-4.222;2023-02-11T18:38:36;2.15;;;1.50;;
44428;SDS011;30134;47.866;-4.222;2023-02-11T18:41:02;2.00;;;1.80;;
44428;SDS011;30134;47.866;-4.222;2023-02-11T18:43:29;3.45;;;2.03;;
44428;SDS011;30134;47.866;-4.222;2023-02-11T18:45:55;1.98;;;1.40;;
44428;SDS011;30134;47.866;-4.222;2023-02-11T18:48:22;2.45;;;1.80;;
44428;SDS011;30134;47.866;-4.222;2023-02-11T18:50:51;2.78;;;1.75;;
44428;SDS011;30134;47.866;-4.222;2023-02-11T18:53:18;2.42;;;1.90;;
44428;SDS011;30134;47.866;-4.222;2023-02-11T18:55:46;2.03;;;1.60;;
44428;SDS011;30134;47.866;-4.222;2023-02-11T18:58:13;2.13;;;1.85;;
44428;SDS011;30134;47.866;-4.222;2023-02-11T19:00:41;2.33;;;2.10;;
44428;SDS011;30134;47.866;-4.222;2023-02-11T19:03:10;3.13;;;2.50;;
44428;SDS011;30134;47.866;-4.222;2023-02-11T19:05:40;3.92;;;1.33;;
44428;SDS011;30134;47.866;-4.222;2023-02-11T19:08:12;2.72;;;1.67;;
44428;SDS011;30134;47.866;-4.222;2023-02-11T19:10:40;2.17;;;1.75;;
44428;SDS011;30134;47.866;-4.222;2023-02-11T19:13:09;3.05;;;2.00;;
44428;SDS011;30134;47.866;-4.222;2023-02-11T19:15:45;1.88;;;1.65;;
44428;SDS011;30134;47.866;-4.222;2023-02-11T19:18:12;4.18;;;1.88;;
44428;SDS011;30134;47.866;-4.222;2023-02-11T19:20:40;2.20;;;1.80;;
44428;SDS011;30134;47.866;-4.222;2023-02-11T19:23:07;2.47;;;1.80;;
44428;SDS011;30134;47.866;-4.222;2023-02-11T19:25:34;2.70;;;1.70;;
44428;SDS011;30134;47.866;-4.222;2023-02-11T19:28:01;2.53;;;1.92;;
44428;SDS011;30134;47.866;-4.222;2023-02-11T19:30:27;3.13;;;1.98;;
44428;SDS011;30134;47.866;-4.222;2023-02-11T19:32:54;2.50;;;2.00;;
44428;SDS011;30134;47.866;-4.222;2023-02-11T19:35:22;1.77;;;1.65;;
44428;SDS011;30134;47.866;-4.222;2023-02-11T19:37:49;2.28;;;1.98;;
44428;SDS011;30134;47.866;-4.222;2023-02-11T19:40:15;2.58;;;2.00;;
44428;SDS011;30134;47.866;-4.222;2023-02-11T19:42:41;1.98;;;1.60;;
44428;SDS011;30134;47.866;-4.222;2023-02-11T19:45:09;2.95;;;1.67;;
44428;SDS011;30134;47.866;-4.222;2023-02-11T19:47:35;2.92;;;2.00;;
44428;SDS011;30134;47.866;-4.222;2023-02-11T19:50:02;1.83;;;1.60;;
44428;SDS011;30134;47.866;-4.222;2023-02-11T19:52:29;2.10;;;1.90;;
44428;SDS011;30134;47.866;-4.222;2023-02-11T19:54:55;2.22;;;1.85;;
44428;SDS011;30134;47.866;-4.222;2023-02-11T19:57:22;3.13;;;2.15;;
44428;SDS011;30134;47.866;-4.222;2023-02-11T19:59:48;2.95;;;2.05;;
44428;SDS011;30134;47.866;-4.222;2023-02-11T20:02:14;2.58;;;1.77;;
44428;SDS011;30134;47.866;-4.222;2023-02-11T20:04:41;2.22;;;1.70;;
44428;SDS011;30134;47.866;-4.222;2023-02-11T20:07:07;3.58;;;1.80;;
44428;SDS011;30134;47.866;-4.222;2023-02-11T20:09:33;3.90;;;1.88;;
44428;SDS011;30134;47.866;-4.222;2023-02-11T20:11:59;2.63;;;1.85;;
44428;SDS011;30134;47.866;-4.222;2023-02-11T20:14:25;2.03;;;1.60;;
44428;SDS011;30134;47.866;-4.222;2023-02-11T20:16:51;2.40;;;2.03;;
44428;SDS011;30134;47.866;-4.222;2023-02-11T20:19:19;1.92;;;1.70;;
44428;SDS011;30134;47.866;-4.222;2023-02-11T20:21:46;2.85;;;2.00;;
44428;SDS011;30134;47.866;-4.222;2023-02-11T20:24:16;2.95;;;1.92;;
44428;SDS011;30134;47.866;-4.222;2023-02-11T20:26:44;3.38;;;2.13;;
44428;SDS011;30134;47.866;-4.222;2023-02-11T20:29:12;4.57;;;2.00;;
44428;SDS011;30134;47.866;-4.222;2023-02-11T20:31:40;3.30;;;1.88;;
44428;SDS011;30134;47.866;-4.222;2023-02-11T20:34:07;2.15;;;1.95;;
44428;SDS011;30134;47.866;-4.222;2023-02-11T20:36:36;2.17;;;1.80;;
44428;SDS011;30134;47.866;-4.222;2023-02-11T20:39:04;2.42;;;2.05;;
44428;SDS011;30134;47.866;-4.222;2023-02-11T20:41:32;1.92;;;1.70;;
44428;SDS011;30134;47.866;-4.222;2023-02-11T20:44:02;2.35;;;1.83;;
44428;SDS011;30134;47.866;-4.222;2023-02-11T20:46:31;2.83;;;2.15;;
44428;SDS011;30134;47.866;-4.222;2023-02-11T20:49:00;2.42;;;1.90;;
44428;SDS011;30134;47.866;-4.222;2023-02-11T20:51:29;3.83;;;2.20;;
44428;SDS011;30134;47.866;-4.222;2023-02-11T20:53:57;2.80;;;1.92;;
44428;SDS011;30134;47.866;-4.222;2023-02-11T20:56:25;2.13;;;1.90;;
44428;SDS011;30134;47.866;-4.222;2023-02-11T20:58:57;2.90;;;2.28;;
44428;SDS011;30134;47.866;-4.222;2023-02-11T21:01:27;2.47;;;2.03;;
44428;SDS011;30134;47.866;-4.222;2023-02-11T21:04:14;2.70;;;2.10;;
44428;SDS011;30134;47.866;-4.222;2023-02-11T21:06:51;2.72;;;2.08;;
44428;SDS011;30134;47.866;-4.222;2023-02-11T21:09:21;2.67;;;2.10;;
44428;SDS011;30134;47.866;-4.222;2023-02-11T21:11:51;3.03;;;1.95;;
44428;SDS011;30134;47.866;-4.222;2023-02-11T21:14:19;2.30;;;2.00;;
44428;SDS011;30134;47.866;-4.222;2023-02-11T21:16:48;2.53;;;2.00;;
44428;SDS011;30134;47.866;-4.222;2023-02-11T21:19:14;2.60;;;2.15;;
44428;SDS011;30134;47.866;-4.222;2023-02-11T21:21:41;2.83;;;2.30;;
44428;SDS011;30134;47.866;-4.222;2023-02-11T21:24:07;2.78;;;2.10;;
44428;SDS011;30134;47.866;-4.222;2023-02-11T21:26:34;2.72;;;2.15;;
44428;SDS011;30134;47.866;-4.222;2023-02-11T21:29:02;3.25;;;2.10;;
44428;SDS011;30134;47.866;-4.222;2023-02-11T21:31:30;2.45;;;2.20;;
44428;SDS011;30134;47.866;-4.222;2023-02-11T21:33:58;2.85;;;2.38;;
44428;SDS011;30134;47.866;-4.222;2023-02-11T21:36:25;2.30;;;2.03;;
44428;SDS011;30134;47.866;-4.222;2023-02-11T21:38:53;2.25;;;2.05;;
44428;SDS011;30134;47.866;-4.222;2023-02-11T21:41:19;3.83;;;2.40;;
44428;SDS011;30134;47.866;-4.222;2023-02-11T21:43:46;3.15;;;2.17;;
44428;SDS011;30134;47.866;-4.222;2023-02-11T21:46:14;3.53;;;2.00;;
44428;SDS011;30134;47.866;-4.222;2023-02-11T21:48:41;2.42;;;2.10;;
44428;SDS011;30134;47.866;-4.222;2023-02-11T21:51:12;2.35;;;1.98;;
44428;SDS011;30134;47.866;-4.222;2023-02-11T21:53:44;2.80;;;2.40;;
44428;SDS011;30134;47.866;-4.222;2023-02-11T21:56:11;2.65;;;2.03;;
44428;SDS011;30134;47.866;-4.222;2023-02-11T21:58:41;3.10;;;2.20;;
44428;SDS011;30134;47.866;-4.222;2023-02-11T22:01:09;2.40;;;2.10;;
44428;SDS011;30134;47.866;-4.222;2023-02-11T22:03:43;3.13;;;2.58;;
44428;SDS011;30134;47.866;-4.222;2023-02-11T22:06:11;2.45;;;2.17;;
44428;SDS011;30134;47.866;-4.222;2023-02-11T22:08:45;2.85;;;2.33;;
44428;SDS011;30134;47.866;-4.222;2023-02-11T22:11:13;3.22;;;2.33;;
44428;SDS011;30134;47.866;-4.222;2023-02-11T22:13:40;3.30;;;2.58;;
44428;SDS011;30134;47.866;-4.222;2023-02-11T22:16:08;4.25;;;2.50;;
44428;SDS011;30134;47.866;-4.222;2023-02-11T22:18:37;2.72;;;2.42;;
44428;SDS011;30134;47.866;-4.222;2023-02-11T22:21:13;2.88;;;2.58;;
44428;SDS011;30134;47.866;-4.222;2023-02-11T22:23:41;2.20;;;2.00;;
44428;SDS011;30134;47.866;-4.222;2023-02-11T22:26:08;3.50;;;2.50;;
44428;SDS011;30134;47.866;-4.222;2023-02-11T22:28:47;2.65;;;2.45;;
44428;SDS011;30134;47.866;-4.222;2023-02-11T22:31:16;3.88;;;2.20;;
44428;SDS011;30134;47.866;-4.222;2023-02-11T22:33:46;2.70;;;2.40;;
44428;SDS011;30134;47.866;-4.222;2023-02-11T22:36:33;2.65;;;2.35;;
44428;SDS011;30134;47.866;-4.222;2023-02-11T22:39:02;2.92;;;2.28;;
44428;SDS011;30134;47.866;-4.222;2023-02-11T22:41:35;3.70;;;2.03;;
44428;SDS011;30134;47.866;-4.222;2023-02-11T22:44:04;2.80;;;2.38;;
44428;SDS011;30134;47.866;-4.222;2023-02-11T22:46:30;2.80;;;2.50;;
44428;SDS011;30134;47.866;-4.222;2023-02-11T22:48:56;2.58;;;2.38;;
44428;SDS011;30134;47.866;-4.222;2023-02-11T22:51:24;4.78;;;2.33;;
44428;SDS011;30134;47.866;-4.222;2023-02-11T22:53:53;3.10;;;2.50;;
44428;SDS011;30134;47.866;-4.222;2023-02-11T22:56:23;3.22;;;2.67;;
44428;SDS011;30134;47.866;-4.222;2023-02-11T22:58:51;2.72;;;2.40;;
44428;SDS011;30134;47.866;-4.222;2023-02-11T23:01:24;3.50;;;2.65;;
44428;SDS011;30134;47.866;-4.222;2023-02-11T23:03:51;2.47;;;2.28;;
44428;SDS011;30134;47.866;-4.222;2023-02-11T23:06:17;2.65;;;2.33;;
44428;SDS011;30134;47.866;-4.222;2023-02-11T23:08:44;3.78;;;2.60;;
44428;SDS011;30134;47.866;-4.222;2023-02-11T23:11:12;3.35;;;2.40;;
44428;SDS011;30134;47.866;-4.222;2023-02-11T23:13:45;2.65;;;2.45;;
44428;SDS011;30134;47.866;-4.222;2023-02-11T23:16:15;2.58;;;2.38;;
44428;SDS011;30134;47.866;-4.222;2023-02-11T23:18:44;2.92;;;2.63;;
44428;SDS011;30134;47.866;-4.222;2023-02-11T23:21:14;3.65;;;2.53;;
44428;SDS011;30134;47.866;-4.222;2023-02-11T23:23:45;2.90;;;2.60;;
44428;SDS011;30134;47.866;-4.222;2023-02-11T23:26:13;2.78;;;2.30;;
44428;SDS011;30134;47.866;-4.222;2023-02-11T23:28:42;3.58;;;2.63;;
44428;SDS011;30134;47.866;-4.222;2023-02-11T23:33:43;2.92;;;2.47;;
44428;SDS011;30134;47.866;-4.222;2023-02-11T23:36:10;3.88;;;2.65;;
44428;SDS011;30134;47.866;-4.222;2023-02-11T23:38:38;3.00;;;2.70;;
44428;SDS011;30134;47.866;-4.222;2023-02-11T23:41:04;2.60;;;2.40;;
44428;SDS011;30134;47.866;-4.222;2023-02-11T23:43:31;2.97;;;2.55;;
44428;SDS011;30134;47.866;-4.222;2023-02-11T23:45:57;3.75;;;2.72;;
44428;SDS011;30134;47.866;-4.222;2023-02-11T23:48:24;3.13;;;2.55;;
44428;SDS011;30134;47.866;-4.222;2023-02-11T23:50:50;3.33;;;2.78;;